createdAt,value
2023-05-14T00:00:04.019Z,2570.00
2023-05-14T00:01:04.025Z,2560.00
2023-05-14T00:02:04.068Z,2558.00
2023-05-14T00:03:04.056Z,2558.00
2023-05-14T00:04:04.108Z,2557.00
2023-05-14T00:05:03.974Z,2545.00
2023-05-14T00:06:03.991Z,2553.00
2023-05-14T00:07:03.971Z,2562.00
2023-05-14T00:08:03.970Z,2557.00
2023-05-14T00:09:04.000Z,2553.00
2023-05-14T00:10:03.964Z,2555.00
2023-05-14T00:11:03.957Z,2553.00
2023-05-14T00:12:03.974Z,2552.00
2023-05-14T00:13:03.917Z,2548.00
2023-05-14T00:14:03.907Z,2545.00
2023-05-14T00:15:03.907Z,2532.00
2023-05-14T00:16:03.929Z,2533.00
2023-05-14T00:17:03.893Z,2521.00
2023-05-14T00:18:03.944Z,2524.00
2023-05-14T00:19:03.965Z,2529.00
2023-05-14T00:20:03.920Z,2542.00
2023-05-14T00:21:03.890Z,2537.00
2023-05-14T00:22:03.857Z,2520.00
2023-05-14T00:23:03.865Z,2528.00
2023-05-14T00:24:03.848Z,2521.00
2023-05-14T00:25:03.861Z,2515.00
2023-05-14T00:26:03.817Z,2530.00
2023-05-14T00:27:03.876Z,2517.00
2023-05-14T00:28:03.834Z,2519.00
2023-05-14T00:29:03.820Z,2516.00
2023-05-14T00:30:03.799Z,2517.00
2023-05-14T00:31:03.807Z,2495.00
2023-05-14T00:32:03.797Z,2508.00
2023-05-14T00:33:03.898Z,2495.00
2023-05-14T00:34:03.743Z,2511.00
2023-05-14T00:35:03.787Z,2498.00
2023-05-14T00:36:03.736Z,2495.00
2023-05-14T00:37:03.774Z,2491.00
2023-05-14T00:38:03.793Z,2505.00
2023-05-14T00:39:03.775Z,2497.00
2023-05-14T00:40:03.837Z,2492.00
2023-05-14T00:41:03.748Z,2504.00
2023-05-14T00:42:03.728Z,2489.00
2023-05-14T00:43:03.712Z,2480.00
2023-05-14T00:44:03.729Z,2482.00
2023-05-14T00:45:03.695Z,2495.00
2023-05-14T00:46:03.706Z,2479.00
2023-05-14T00:47:03.837Z,2469.00
2023-05-14T00:48:03.753Z,2476.00
2023-05-14T00:49:03.704Z,2483.00
2023-05-14T00:50:03.665Z,2474.00
2023-05-14T00:51:03.639Z,2467.00
2023-05-14T00:52:03.664Z,2463.00
2023-05-14T00:53:03.655Z,2476.00
2023-05-14T00:54:03.649Z,2462.00
2023-05-14T00:55:03.659Z,2462.00
2023-05-14T00:56:03.631Z,2463.00
2023-05-14T00:57:03.602Z,2474.00
2023-05-14T00:58:03.599Z,2462.00
2023-05-14T00:59:03.606Z,2470.00
2023-05-14T01:00:03.589Z,2463.00
2023-05-14T01:01:03.645Z,2462.00
2023-05-14T01:02:03.608Z,2464.00
2023-05-14T01:03:03.759Z,2463.00
2023-05-14T01:04:03.623Z,2448.00
2023-05-14T01:05:03.575Z,2461.00
2023-05-14T01:06:03.579Z,2465.00
2023-05-14T01:07:03.556Z,2469.00
2023-05-14T01:08:03.591Z,2461.00
2023-05-14T01:09:03.551Z,2455.00
2023-05-14T01:10:03.557Z,2453.00
2023-05-14T01:11:03.560Z,2450.00
2023-05-14T01:12:03.549Z,2447.00
2023-05-14T01:13:03.529Z,2441.00
2023-05-14T01:14:03.506Z,2445.00
2023-05-14T01:15:03.521Z,2446.00
2023-05-14T01:16:03.516Z,2429.00
2023-05-14T01:17:03.475Z,2429.00
2023-05-14T01:18:03.530Z,2440.00
2023-05-14T01:19:03.476Z,2431.00
2023-05-14T01:20:03.455Z,2427.00
2023-05-14T01:21:03.438Z,2455.00
2023-05-14T01:22:03.453Z,2419.00
2023-05-14T01:23:03.439Z,2424.00
2023-05-14T01:24:03.454Z,2419.00
2023-05-14T01:25:03.436Z,2426.00
2023-05-14T01:26:03.434Z,2416.00
2023-05-14T01:27:03.393Z,2419.00
2023-05-14T01:28:03.430Z,2418.00
2023-05-14T01:29:03.394Z,2406.00
2023-05-14T01:30:03.413Z,2405.00
2023-05-14T01:31:03.379Z,2407.00
2023-05-14T01:32:03.478Z,2405.00
2023-05-14T01:33:03.421Z,2396.00
2023-05-14T01:34:03.354Z,2402.00
2023-05-14T01:35:03.359Z,2405.00
2023-05-14T01:36:03.382Z,2416.00
2023-05-14T01:37:03.320Z,2408.00
2023-05-14T01:38:03.333Z,2407.00
2023-05-14T01:39:03.341Z,2402.00
2023-05-14T01:40:03.354Z,2411.00
2023-05-14T01:41:03.307Z,2390.00
2023-05-14T01:42:03.356Z,2389.00
2023-05-14T01:43:03.335Z,2407.00
2023-05-14T01:44:03.288Z,2388.00
2023-05-14T01:45:03.317Z,2386.00
2023-05-14T01:46:03.345Z,2388.00
2023-05-14T01:47:03.235Z,2396.00
2023-05-14T01:48:03.297Z,2376.00
2023-05-14T01:49:03.223Z,2362.00
2023-05-14T01:50:03.238Z,2371.00
2023-05-14T01:51:03.264Z,2374.00
2023-05-14T01:52:03.262Z,2369.00
2023-05-14T01:53:03.227Z,2370.00
2023-05-14T01:54:03.232Z,2362.00
2023-05-14T01:55:03.233Z,2369.00
2023-05-14T01:56:03.255Z,2372.00
2023-05-14T01:57:03.213Z,2361.00
2023-05-14T01:58:03.204Z,2347.00
2023-05-14T01:59:03.167Z,2350.00
2023-05-14T02:00:03.178Z,2364.00
2023-05-14T02:01:03.123Z,2364.00
2023-05-14T02:02:03.167Z,2370.00
2023-05-14T02:03:03.229Z,2355.00
2023-05-14T02:04:03.201Z,2346.00
2023-05-14T02:05:04.338Z,2353.00
2023-05-14T02:06:03.118Z,2365.00
2023-05-14T02:07:03.102Z,2348.00
2023-05-14T02:08:03.102Z,2356.00
2023-05-14T02:09:03.141Z,2346.00
2023-05-14T02:10:03.145Z,2350.00
2023-05-14T02:11:03.092Z,2345.00
2023-05-14T02:12:03.073Z,2340.00
2023-05-14T02:13:03.088Z,2342.00
2023-05-14T02:14:03.084Z,2336.00
2023-05-14T02:15:03.069Z,2339.00
2023-05-14T02:16:03.118Z,2331.00
2023-05-14T02:17:03.060Z,2327.00
2023-05-14T02:18:03.107Z,2331.00
2023-05-14T02:19:03.090Z,2334.00
2023-05-14T02:20:03.054Z,2328.00
2023-05-14T02:21:03.028Z,2334.00
2023-05-14T02:22:03.011Z,2333.00
2023-05-14T02:23:03.033Z,2327.00
2023-05-14T02:24:02.981Z,2305.00
2023-05-14T02:25:02.986Z,2319.00
2023-05-14T02:26:02.969Z,2325.00
2023-05-14T02:27:02.974Z,2321.00
2023-05-14T02:28:03.027Z,2314.00
2023-05-14T02:29:02.977Z,2315.00
2023-05-14T02:30:03.003Z,2317.00
2023-05-14T02:31:03.012Z,2325.00
2023-05-14T02:32:02.962Z,2320.00
2023-05-14T02:33:03.054Z,2303.00
2023-05-14T02:34:02.933Z,2319.00
2023-05-14T02:35:02.916Z,2304.00
2023-05-14T02:36:02.935Z,2307.00
2023-05-14T02:37:02.932Z,2326.00
2023-05-14T02:38:02.897Z,2314.00
2023-05-14T02:39:02.895Z,2308.00
2023-05-14T02:40:02.876Z,2294.00
2023-05-14T02:41:02.869Z,2307.00
2023-05-14T02:42:02.882Z,2299.00
2023-05-14T02:43:02.872Z,2288.00
2023-05-14T02:44:02.879Z,2273.00
2023-05-14T02:45:02.853Z,2271.00
2023-05-14T02:46:02.871Z,2287.00
2023-05-14T02:47:02.933Z,2279.00
2023-05-14T02:48:02.861Z,2283.00
2023-05-14T02:49:02.805Z,2279.00
2023-05-14T02:50:02.829Z,2292.00
2023-05-14T02:51:02.831Z,2278.00
2023-05-14T02:52:02.816Z,2274.00
2023-05-14T02:53:02.814Z,2263.00
2023-05-14T02:54:02.796Z,2276.00
2023-05-14T02:55:02.769Z,2261.00
2023-05-14T02:56:02.770Z,2268.00
2023-05-14T02:57:02.784Z,2259.00
2023-05-14T02:58:02.757Z,2276.00
2023-05-14T02:59:02.741Z,2263.00
2023-05-14T03:00:02.774Z,2252.00
2023-05-14T03:01:02.764Z,2260.00
2023-05-14T03:02:02.781Z,2262.00
2023-05-14T03:03:02.744Z,2250.00
2023-05-14T03:04:02.737Z,2263.00
2023-05-14T03:05:02.708Z,2250.00
2023-05-14T03:06:02.724Z,2258.00
2023-05-14T03:07:02.690Z,2249.00
2023-05-14T03:08:02.712Z,2263.00
2023-05-14T03:09:02.681Z,2254.00
2023-05-14T03:10:02.677Z,2247.00
2023-05-14T03:11:02.663Z,2246.00
2023-05-14T03:12:02.677Z,2255.00
2023-05-14T03:13:02.698Z,2249.00
2023-05-14T03:14:02.653Z,2231.00
2023-05-14T03:15:02.669Z,2248.00
2023-05-14T03:16:02.662Z,2241.00
2023-05-14T03:17:02.841Z,2228.00
2023-05-14T03:18:02.665Z,2243.00
2023-05-14T03:19:02.643Z,2246.00
2023-05-14T03:20:02.620Z,2211.00
2023-05-14T03:21:02.625Z,2239.00
2023-05-14T03:22:02.641Z,2229.00
2023-05-14T03:23:02.594Z,2222.00
2023-05-14T03:24:02.632Z,2223.00
2023-05-14T03:25:02.559Z,2213.00
2023-05-14T03:26:02.577Z,2229.00
2023-05-14T03:27:02.567Z,2221.00
2023-05-14T03:28:02.557Z,2222.00
2023-05-14T03:29:02.577Z,2206.00
2023-05-14T03:30:02.556Z,2220.00
2023-05-14T03:31:02.590Z,2208.00
2023-05-14T03:32:02.535Z,2217.00
2023-05-14T03:33:02.516Z,2202.00
2023-05-14T03:34:02.555Z,2202.00
2023-05-14T03:35:02.528Z,2207.00
2023-05-14T03:36:02.485Z,2208.00
2023-05-14T03:37:02.491Z,2209.00
2023-05-14T03:38:02.460Z,2195.00
2023-05-14T03:39:02.492Z,2194.00
2023-05-14T03:40:02.499Z,2185.00
2023-05-14T03:41:02.446Z,2193.00
2023-05-14T03:42:02.484Z,2173.00
2023-05-14T03:43:02.472Z,2193.00
2023-05-14T03:44:02.464Z,2178.00
2023-05-14T03:45:02.418Z,2184.00
2023-05-14T03:46:02.439Z,2173.00
2023-05-14T03:47:02.491Z,2168.00
2023-05-14T03:48:02.515Z,2189.00
2023-05-14T03:49:02.597Z,2187.00
2023-05-14T03:50:02.407Z,2180.00
2023-05-14T03:51:02.442Z,2179.00
2023-05-14T03:52:02.510Z,2175.00
2023-05-14T03:53:02.520Z,2158.00
2023-05-14T03:54:02.499Z,2153.00
2023-05-14T03:55:02.523Z,2157.00
2023-05-14T03:56:02.570Z,2173.00
2023-05-14T03:57:02.548Z,2163.00
2023-05-14T03:58:02.554Z,2156.00
2023-05-14T03:59:02.562Z,2154.00
2023-05-14T04:00:02.625Z,2143.00
2023-05-14T04:01:02.590Z,2165.00
2023-05-14T04:02:02.610Z,2157.00
2023-05-14T04:03:02.852Z,2166.00
2023-05-14T04:04:02.746Z,2163.00
2023-05-14T04:05:02.670Z,2140.00
2023-05-14T04:06:02.668Z,2149.00
2023-05-14T04:07:02.721Z,2150.00
2023-05-14T04:08:02.698Z,2154.00
2023-05-14T04:09:02.750Z,2152.00
2023-05-14T04:10:04.352Z,2144.00
2023-05-14T04:11:02.724Z,2122.00
2023-05-14T04:12:02.742Z,2137.00
2023-05-14T04:13:02.699Z,2131.00
2023-05-14T04:14:02.698Z,2131.00
2023-05-14T04:15:02.679Z,2134.00
2023-05-14T04:16:02.735Z,2137.00
2023-05-14T04:17:02.680Z,2136.00
2023-05-14T04:18:02.701Z,2135.00
2023-05-14T04:19:02.727Z,2128.00
2023-05-14T04:20:02.696Z,2123.00
2023-05-14T04:21:02.723Z,2117.00
2023-05-14T04:22:02.739Z,2135.00
2023-05-14T04:23:02.753Z,2129.00
2023-05-14T04:24:02.779Z,2104.00
2023-05-14T04:25:02.741Z,2127.00
2023-05-14T04:26:02.784Z,2135.00
2023-05-14T04:27:02.803Z,2102.00
2023-05-14T04:28:02.863Z,2099.00
2023-05-14T04:29:02.873Z,2101.00
2023-05-14T04:30:02.827Z,2110.00
2023-05-14T04:31:02.813Z,2113.00
2023-05-14T04:32:02.916Z,2100.00
2023-05-14T04:33:02.934Z,2109.00
2023-05-14T04:34:02.906Z,2117.00
2023-05-14T04:35:02.860Z,2108.00
2023-05-14T04:36:02.913Z,2097.00
2023-05-14T04:37:02.918Z,2102.00
2023-05-14T04:38:02.918Z,2099.00
2023-05-14T04:39:02.911Z,2096.00
2023-05-14T04:40:03.135Z,2088.00
2023-05-14T04:41:02.966Z,2084.00
2023-05-14T04:42:02.956Z,2073.00
2023-05-14T04:43:03.017Z,2100.00
2023-05-14T04:44:03.016Z,2085.00
2023-05-14T04:45:03.092Z,2083.00
2023-05-14T04:46:03.142Z,2090.00
2023-05-14T04:47:03.084Z,2086.00
2023-05-14T04:48:03.111Z,2092.00
2023-05-14T04:49:03.074Z,2068.00
2023-05-14T04:50:03.089Z,2071.00
2023-05-14T04:51:04.023Z,2073.00
2023-05-14T04:52:03.138Z,2075.00
2023-05-14T04:53:03.143Z,2075.00
2023-05-14T04:54:03.225Z,2069.00
2023-05-14T04:55:03.180Z,2071.00
2023-05-14T04:56:03.194Z,2075.00
2023-05-14T04:57:03.267Z,2074.00
2023-05-14T04:58:03.196Z,2058.00
2023-05-14T04:59:03.178Z,2057.00
2023-05-14T05:00:03.201Z,2055.00
2023-05-14T05:01:03.260Z,2066.00
2023-05-14T05:02:03.288Z,2056.00
2023-05-14T05:03:03.416Z,2059.00
2023-05-14T05:04:03.404Z,2060.00
2023-05-14T05:05:03.308Z,2055.00
2023-05-14T05:06:03.298Z,2063.00
2023-05-14T05:07:03.334Z,2070.00
2023-05-14T05:08:03.445Z,2053.00
2023-05-14T05:09:03.349Z,2061.00
2023-05-14T05:10:03.367Z,2054.00
2023-05-14T05:11:03.400Z,2038.00
2023-05-14T05:12:03.431Z,2059.00
2023-05-14T05:13:03.391Z,2053.00
2023-05-14T05:14:03.463Z,2058.00
2023-05-14T05:15:03.428Z,2049.00
2023-05-14T05:16:03.491Z,2049.00
2023-05-14T05:17:03.449Z,2057.00
2023-05-14T05:18:03.502Z,2040.00
2023-05-14T05:19:03.565Z,2043.00
2023-05-14T05:20:03.520Z,2040.00
2023-05-14T05:21:03.490Z,2039.00
2023-05-14T05:22:03.548Z,2031.00
2023-05-14T05:23:03.513Z,2031.00
2023-05-14T05:24:03.644Z,2027.00
2023-05-14T05:25:03.528Z,2042.00
2023-05-14T05:26:03.539Z,2043.00
2023-05-14T05:27:03.588Z,2042.00
2023-05-14T05:28:03.550Z,2030.00
2023-05-14T05:29:03.610Z,2039.00
2023-05-14T05:30:03.574Z,2011.00
2023-05-14T05:31:03.677Z,2034.00
2023-05-14T05:32:03.640Z,2031.00
2023-05-14T05:33:03.688Z,2020.00
2023-05-14T05:34:03.638Z,2021.00
2023-05-14T05:35:03.663Z,2036.00
2023-05-14T05:36:03.696Z,2018.00
2023-05-14T05:37:03.656Z,2030.00
2023-05-14T05:38:03.730Z,2016.00
2023-05-14T05:39:03.677Z,2031.00
2023-05-14T05:40:03.769Z,2021.00
2023-05-14T05:41:03.696Z,2019.00
2023-05-14T05:42:03.762Z,2013.00
2023-05-14T05:43:03.722Z,2017.00
2023-05-14T05:44:03.789Z,2007.00
2023-05-14T05:45:03.811Z,2013.00
2023-05-14T05:46:03.846Z,2003.00
2023-05-14T05:47:03.844Z,2014.00
2023-05-14T05:48:03.836Z,1996.00
2023-05-14T05:49:03.828Z,2018.00
2023-05-14T05:50:03.842Z,2004.00
2023-05-14T05:51:03.872Z,1976.00
2023-05-14T05:52:03.873Z,2002.00
2023-05-14T05:53:03.872Z,2017.00
2023-05-14T05:54:03.935Z,1997.00
2023-05-14T05:55:03.896Z,1993.00
2023-05-14T05:56:03.891Z,2000.00
2023-05-14T05:57:03.942Z,1991.00
2023-05-14T05:58:03.962Z,1993.00
2023-05-14T05:59:03.990Z,1990.00
2023-05-14T06:00:03.996Z,1989.00
2023-05-14T06:01:04.013Z,2002.00
2023-05-14T06:02:04.104Z,1984.00
2023-05-14T06:03:04.046Z,1974.00
2023-05-14T06:04:04.062Z,1977.00
2023-05-14T06:05:04.077Z,1973.00
2023-05-14T06:06:04.067Z,1994.00
2023-05-14T06:07:04.092Z,1976.00
2023-05-14T06:08:04.124Z,1988.00
2023-05-14T06:09:04.119Z,1967.00
2023-05-14T06:10:04.153Z,1966.00
2023-05-14T06:11:04.112Z,1976.00
2023-05-14T06:12:04.226Z,1965.00
2023-05-14T06:13:04.137Z,1987.00
2023-05-14T06:14:04.152Z,1975.00
2023-05-14T06:15:04.178Z,1971.00
2023-05-14T06:16:04.307Z,1979.00
2023-05-14T06:17:04.194Z,1970.00
2023-05-14T06:18:04.286Z,1974.00
2023-05-14T06:19:04.260Z,1963.00
2023-05-14T06:20:04.281Z,1972.00
2023-05-14T06:21:04.245Z,1954.00
2023-05-14T06:22:04.335Z,1975.00
2023-05-14T06:23:04.281Z,1972.00
2023-05-14T06:24:04.273Z,1966.00
2023-05-14T06:25:04.318Z,1962.00
2023-05-14T06:26:04.275Z,1973.00
2023-05-14T06:27:04.288Z,1963.00
2023-05-14T06:28:04.302Z,1966.00
2023-05-14T06:29:04.289Z,1958.00
2023-05-14T06:30:04.286Z,1946.00
2023-05-14T06:31:04.289Z,1943.00
2023-05-14T06:32:04.359Z,1934.00
2023-05-14T06:33:04.394Z,1939.00
2023-05-14T06:34:04.332Z,1936.00
2023-05-14T06:35:04.331Z,1941.00
2023-05-14T06:36:04.344Z,1946.00
2023-05-14T06:37:04.332Z,1936.00
2023-05-14T06:38:04.442Z,1930.00
2023-05-14T06:39:04.387Z,1931.00
2023-05-14T06:40:04.379Z,1929.00
2023-05-14T06:41:04.436Z,1921.00
2023-05-14T06:42:04.406Z,1938.00
2023-05-14T06:43:04.404Z,1917.00
2023-05-14T06:44:04.399Z,1923.00
2023-05-14T06:45:04.405Z,1916.00
2023-05-14T06:46:04.411Z,1907.00
2023-05-14T06:47:04.430Z,1929.00
2023-05-14T06:48:04.510Z,1920.00
2023-05-14T06:49:04.501Z,1900.00
2023-05-14T06:50:04.507Z,1925.00
2023-05-14T06:51:04.463Z,1904.00
2023-05-14T06:52:04.454Z,1908.00
2023-05-14T06:53:04.446Z,1913.00
2023-05-14T06:54:04.445Z,1912.00
2023-05-14T06:55:04.442Z,1905.00
2023-05-14T06:56:04.449Z,1900.00
2023-05-14T06:57:04.447Z,1890.00
2023-05-14T06:58:04.428Z,1903.00
2023-05-14T06:59:04.485Z,1901.00
2023-05-14T07:00:04.486Z,1887.00
2023-05-14T07:01:04.508Z,1873.00
2023-05-14T07:02:04.466Z,1882.00
2023-05-14T07:03:04.486Z,1898.00
2023-05-14T07:04:04.534Z,1898.00
2023-05-14T07:05:04.453Z,1897.00
2023-05-14T07:06:04.516Z,1883.00
2023-05-14T07:07:04.455Z,1885.00
2023-05-14T07:08:04.458Z,1890.00
2023-05-14T07:09:04.471Z,1891.00
2023-05-14T07:10:04.488Z,1873.00
2023-05-14T07:11:04.491Z,1875.00
2023-05-14T07:12:04.449Z,1878.00
2023-05-14T07:13:04.482Z,1866.00
2023-05-14T07:14:04.470Z,1873.00
2023-05-14T07:15:04.491Z,1864.00
2023-05-14T07:16:04.447Z,1867.00
2023-05-14T07:17:04.526Z,1852.00
2023-05-14T07:18:04.501Z,1874.00
2023-05-14T07:19:04.509Z,1849.00
2023-05-14T07:20:04.487Z,1856.00
2023-05-14T07:21:04.452Z,1869.00
2023-05-14T07:22:04.465Z,1849.00
2023-05-14T07:23:04.450Z,1850.00
2023-05-14T07:24:04.448Z,1850.00
2023-05-14T07:25:04.448Z,1849.00
2023-05-14T07:26:04.457Z,1863.00
2023-05-14T07:27:04.502Z,1845.00
2023-05-14T07:28:04.500Z,1845.00
2023-05-14T07:29:04.460Z,1836.00
2023-05-14T07:30:04.525Z,1854.00
2023-05-14T07:31:04.541Z,1851.00
2023-05-14T07:32:04.478Z,1846.00
2023-05-14T07:33:04.610Z,1848.00
2023-05-14T07:34:04.547Z,1845.00
2023-05-14T07:35:04.587Z,1844.00
2023-05-14T07:36:04.624Z,1844.00
2023-05-14T07:37:04.675Z,1835.00
2023-05-14T07:38:04.686Z,1841.00
2023-05-14T07:39:04.747Z,1831.00
2023-05-14T07:40:04.775Z,1846.00
2023-05-14T07:41:04.789Z,1846.00
2023-05-14T07:42:04.800Z,1853.00
2023-05-14T07:43:04.834Z,1844.00
2023-05-14T07:44:04.828Z,1833.00
2023-05-14T07:45:04.901Z,1835.00
2023-05-14T07:46:04.948Z,1827.00
2023-05-14T07:47:05.048Z,1820.00
2023-05-14T07:48:05.037Z,1840.00
2023-05-14T07:49:05.022Z,1816.00
2023-05-14T07:50:04.996Z,1805.00
2023-05-14T07:51:05.070Z,1822.00
2023-05-14T07:52:05.055Z,1822.00
2023-05-14T07:53:05.110Z,1815.00
2023-05-14T07:54:05.145Z,1824.00
2023-05-14T07:55:05.219Z,1839.00
2023-05-14T07:56:05.227Z,1829.00
2023-05-14T07:57:05.268Z,1828.00
2023-05-14T07:58:05.320Z,1842.00
2023-05-14T07:59:05.351Z,1837.00
2023-05-14T08:00:05.430Z,1816.00
2023-05-14T08:01:05.477Z,1817.00
2023-05-14T08:02:05.593Z,1809.00
2023-05-14T08:03:05.684Z,1843.00
2023-05-14T08:04:05.754Z,1831.00
2023-05-14T08:05:05.742Z,1839.00
2023-05-14T08:06:05.815Z,1844.00
2023-05-14T08:07:05.915Z,1844.00
2023-05-14T08:08:05.971Z,1838.00
2023-05-14T08:09:05.978Z,1827.00
2023-05-14T08:10:06.045Z,1843.00
2023-05-14T08:11:06.172Z,1833.00
2023-05-14T08:12:06.167Z,1832.00
2023-05-14T08:13:06.260Z,1820.00
2023-05-14T08:14:06.335Z,1825.00
2023-05-14T08:15:06.417Z,1824.00
2023-05-14T08:16:06.441Z,1817.00
2023-05-14T08:17:06.512Z,1813.00
2023-05-14T08:18:06.561Z,1820.00
2023-05-14T08:19:06.639Z,1819.00
2023-05-14T08:20:06.657Z,1812.00
2023-05-14T08:21:06.709Z,1806.00
2023-05-14T08:22:06.768Z,1811.00
2023-05-14T08:23:06.835Z,1813.00
2023-05-14T08:24:06.900Z,1800.00
2023-05-14T08:25:06.948Z,1797.00
2023-05-14T08:26:06.965Z,1798.00
2023-05-14T08:27:07.033Z,1797.00
2023-05-14T08:28:07.147Z,1776.00
2023-05-14T08:29:08.723Z,1788.00
2023-05-14T08:30:07.145Z,1776.00
2023-05-14T08:31:07.155Z,1797.00
2023-05-14T08:32:19.359Z,1773.00
2023-05-14T08:33:08.168Z,1775.00
2023-05-14T08:34:07.140Z,1778.00
2023-05-14T08:35:07.114Z,1786.00
2023-05-14T08:36:07.133Z,1786.00
2023-05-14T08:37:07.104Z,1792.00
2023-05-14T08:38:07.095Z,1780.00
2023-05-14T08:39:07.102Z,1792.00
2023-05-14T08:40:07.106Z,1799.00
2023-05-14T08:41:07.074Z,1768.00
2023-05-14T08:42:07.079Z,1776.00
2023-05-14T08:43:07.140Z,1778.00
2023-05-14T08:44:07.156Z,1774.00
2023-05-14T08:45:07.146Z,1765.00
2023-05-14T08:46:07.208Z,1781.00
2023-05-14T08:47:07.253Z,1767.00
2023-05-14T08:48:07.344Z,1772.00
2023-05-14T08:49:07.402Z,1757.00
2023-05-14T08:50:07.362Z,1752.00
2023-05-14T08:51:07.427Z,1756.00
2023-05-14T08:52:07.451Z,1759.00
2023-05-14T08:53:07.504Z,1755.00
2023-05-14T08:54:07.561Z,1752.00
2023-05-14T08:55:07.538Z,1749.00
2023-05-14T08:56:07.625Z,1760.00
2023-05-14T08:57:07.628Z,1749.00
2023-05-14T08:58:07.697Z,1750.00
2023-05-14T08:59:07.674Z,1743.00
2023-05-14T09:00:07.701Z,1761.00
2023-05-14T09:01:07.788Z,1736.00
2023-05-14T09:02:07.921Z,1738.00
2023-05-14T09:03:08.057Z,1735.00
2023-05-14T09:04:07.902Z,1712.00
2023-05-14T09:05:07.915Z,1718.00
2023-05-14T09:06:07.935Z,1740.00
2023-05-14T09:07:08.001Z,1747.00
2023-05-14T09:08:07.973Z,1742.00
2023-05-14T09:09:08.031Z,1733.00
2023-05-14T09:10:08.098Z,1738.00
2023-05-14T09:11:08.182Z,1728.00
2023-05-14T09:12:08.147Z,1744.00
2023-05-14T09:13:08.212Z,1739.00
2023-05-14T09:14:08.174Z,1730.00
2023-05-14T09:15:08.262Z,1730.00
2023-05-14T09:16:08.288Z,1736.00
2023-05-14T09:17:08.326Z,1737.00
2023-05-14T09:18:08.449Z,1727.00
2023-05-14T09:19:08.364Z,1728.00
2023-05-14T09:20:08.418Z,1738.00
2023-05-14T09:21:08.431Z,1733.00
2023-05-14T09:22:08.432Z,1738.00
2023-05-14T09:23:08.488Z,1737.00
2023-05-14T09:24:08.548Z,1734.00
2023-05-14T09:25:08.548Z,1733.00
2023-05-14T09:26:08.585Z,1720.00
2023-05-14T09:27:08.598Z,1735.00
2023-05-14T09:28:08.623Z,1740.00
2023-05-14T09:29:08.634Z,1734.00
2023-05-14T09:30:08.657Z,1727.00
2023-05-14T09:31:08.700Z,1737.00
2023-05-14T09:32:08.776Z,1736.00
2023-05-14T09:33:08.782Z,1748.00
2023-05-14T09:34:08.750Z,1736.00
2023-05-14T09:35:08.817Z,1740.00
2023-05-14T09:36:08.812Z,1743.00
2023-05-14T09:37:08.845Z,1734.00
2023-05-14T09:38:08.880Z,1734.00
2023-05-14T09:39:08.874Z,1740.00
2023-05-14T09:40:08.892Z,1735.00
2023-05-14T09:41:08.965Z,1716.00
2023-05-14T09:42:08.914Z,1731.00
2023-05-14T09:43:08.956Z,1722.00
2023-05-14T09:44:08.981Z,1725.00
2023-05-14T09:45:09.008Z,1736.00
2023-05-14T09:46:09.013Z,1719.00
2023-05-14T09:47:09.084Z,1730.00
2023-05-14T09:48:09.133Z,1719.00
2023-05-14T09:49:09.079Z,1721.00
2023-05-14T09:50:09.149Z,1717.00
2023-05-14T09:51:09.121Z,1712.00
2023-05-14T09:52:09.143Z,1733.00
2023-05-14T09:53:09.135Z,1708.00
2023-05-14T09:54:09.145Z,1722.00
2023-05-14T09:55:09.155Z,1722.00
2023-05-14T09:56:09.153Z,1716.00
2023-05-14T09:57:09.173Z,1702.00
2023-05-14T09:58:09.203Z,1709.00
2023-05-14T09:59:09.203Z,1719.00
2023-05-14T10:00:09.202Z,1713.00
2023-05-14T10:01:09.260Z,1706.00
2023-05-14T10:02:09.248Z,1715.00
2023-05-14T10:03:09.273Z,1704.00
2023-05-14T10:04:09.259Z,1702.00
2023-05-14T10:05:09.262Z,1716.00
2023-05-14T10:06:09.271Z,1707.00
2023-05-14T10:07:09.278Z,1705.00
2023-05-14T10:08:09.297Z,1703.00
2023-05-14T10:09:09.293Z,1704.00
2023-05-14T10:10:09.300Z,1703.00
2023-05-14T10:11:09.299Z,1707.00
2023-05-14T10:12:09.304Z,1692.00
2023-05-14T10:13:09.314Z,1690.00
2023-05-14T10:14:09.356Z,1689.00
2023-05-14T10:15:09.309Z,1683.00
2023-05-14T10:16:09.306Z,1691.00
2023-05-14T10:17:09.396Z,1698.00
2023-05-14T10:18:09.426Z,1704.00
2023-05-14T10:19:09.472Z,1693.00
2023-05-14T10:20:09.390Z,1691.00
2023-05-14T10:21:09.361Z,1687.00
2023-05-14T10:22:09.382Z,1688.00
2023-05-14T10:23:09.426Z,1694.00
2023-05-14T10:24:09.372Z,1671.00
2023-05-14T10:25:09.420Z,1693.00
2023-05-14T10:26:09.391Z,1685.00
2023-05-14T10:27:09.399Z,1679.00
2023-05-14T10:28:09.415Z,1676.00
2023-05-14T10:29:09.448Z,1687.00
2023-05-14T10:30:09.392Z,1668.00
2023-05-14T10:31:09.447Z,1670.00
2023-05-14T10:32:09.416Z,1676.00
2023-05-14T10:33:09.458Z,1661.00
2023-05-14T10:34:09.417Z,1664.00
2023-05-14T10:35:09.421Z,1673.00
2023-05-14T10:36:09.383Z,1664.00
2023-05-14T10:37:09.437Z,1676.00
2023-05-14T10:38:09.411Z,1664.00
2023-05-14T10:39:09.409Z,1660.00
2023-05-14T10:40:09.413Z,1660.00
2023-05-14T10:41:09.435Z,1662.00
2023-05-14T10:42:09.392Z,1657.00
2023-05-14T10:43:09.395Z,1654.00
2023-05-14T10:44:09.471Z,1660.00
2023-05-14T10:45:09.417Z,1650.00
2023-05-14T10:46:09.498Z,1662.00
2023-05-14T10:47:09.437Z,1647.00
2023-05-14T10:48:09.465Z,1653.00
2023-05-14T10:49:09.418Z,1659.00
2023-05-14T10:50:09.436Z,1651.00
2023-05-14T10:51:09.455Z,1649.00
2023-05-14T10:52:09.450Z,1648.00
2023-05-14T10:53:09.441Z,1651.00
2023-05-14T10:54:09.412Z,1648.00
2023-05-14T10:55:09.412Z,1642.00
2023-05-14T10:56:09.457Z,1640.00
2023-05-14T10:57:09.431Z,1652.00
2023-05-14T10:58:09.406Z,1648.00
2023-05-14T10:59:09.410Z,1633.00
2023-05-14T11:00:09.415Z,1653.00
2023-05-14T11:01:09.434Z,1638.00
2023-05-14T11:02:09.527Z,1632.00
2023-05-14T11:03:09.495Z,1647.00
2023-05-14T11:04:09.495Z,1633.00
2023-05-14T11:05:09.446Z,1650.00
2023-05-14T11:06:09.439Z,1630.00
2023-05-14T11:07:09.472Z,1631.00
2023-05-14T11:08:09.477Z,1623.00
2023-05-14T11:09:09.447Z,1622.00
2023-05-14T11:10:09.446Z,1628.00
2023-05-14T11:11:09.478Z,1626.00
2023-05-14T11:12:09.485Z,1619.00
2023-05-14T11:13:09.437Z,1634.00
2023-05-14T11:14:10.210Z,1620.00
2023-05-14T11:15:09.507Z,1622.00
2023-05-14T11:16:21.709Z,1621.00
2023-05-14T11:17:10.655Z,1621.00
2023-05-14T11:18:09.556Z,1621.00
2023-05-14T11:19:09.494Z,1615.00
2023-05-14T11:20:09.452Z,1623.00
2023-05-14T11:21:09.484Z,1615.00
2023-05-14T11:22:09.437Z,1614.00
2023-05-14T11:23:09.466Z,1625.00
2023-05-14T11:24:09.460Z,1606.00
2023-05-14T11:25:09.453Z,1605.00
2023-05-14T11:26:09.418Z,1614.00
2023-05-14T11:27:09.403Z,1614.00
2023-05-14T11:28:09.411Z,1615.00
2023-05-14T11:29:09.398Z,1593.00
2023-05-14T11:30:09.409Z,1592.00
2023-05-14T11:31:09.397Z,1608.00
2023-05-14T11:32:09.404Z,1592.00
2023-05-14T11:33:09.385Z,1578.00
2023-05-14T11:34:09.378Z,1602.00
2023-05-14T11:35:09.408Z,1589.00
2023-05-14T11:36:09.358Z,1589.00
2023-05-14T11:37:09.339Z,1581.00
2023-05-14T11:38:09.393Z,1604.00
2023-05-14T11:39:09.314Z,1592.00
2023-05-14T11:40:09.327Z,1589.00
2023-05-14T11:41:09.316Z,1597.00
2023-05-14T11:42:09.293Z,1585.00
2023-05-14T11:43:09.275Z,1586.00
2023-05-14T11:44:09.280Z,1587.00
2023-05-14T11:45:09.292Z,1580.00
2023-05-14T11:46:09.318Z,1584.00
2023-05-14T11:47:09.297Z,1589.00
2023-05-14T11:48:09.275Z,1573.00
2023-05-14T11:49:09.246Z,1588.00
2023-05-14T11:50:09.646Z,1574.00
2023-05-14T11:51:09.219Z,1579.00
2023-05-14T11:52:09.237Z,1579.00
2023-05-14T11:53:09.302Z,1580.00
2023-05-14T11:54:09.208Z,1582.00
2023-05-14T11:55:09.251Z,1573.00
2023-05-14T11:56:09.918Z,1585.00
2023-05-14T11:57:09.185Z,1562.00
2023-05-14T11:58:09.170Z,1572.00
2023-05-14T11:59:09.169Z,1559.00
2023-05-14T12:00:09.216Z,1579.00
2023-05-14T12:01:09.148Z,1575.00
2023-05-14T12:02:09.193Z,1578.00
2023-05-14T12:03:09.257Z,1572.00
2023-05-14T12:04:09.191Z,1560.00
2023-05-14T12:05:09.179Z,1555.00